This is the latest recevied weather packets stored in our database for station/object KC4JY. If no packets are shown the sender has not sent any weather packets the latest 10 day(s).
| Time | Temp. | Humidity | Pressure | Rain* | Wind** | Luminosity | Snow |
|---|---|---|---|---|---|---|---|
| 1778029249 | 19.44° C | 69% | 1016 hPa | 0 mm | - | - | - |
| 1778028332 | 20° C | 69% | 1015.9 hPa | 0 mm | - | - | - |
| 1778027431 | 20° C | 69% | 1015.6 hPa | 0 mm | - | - | - |
| 1778026513 | 20.56° C | 68% | 1015.5 hPa | 0 mm | - | - | - |
| 1778025613 | 21.11° C | 66% | 1015.4 hPa | 0 mm | - | - | - |
| 1778024766 | 21.67° C | 65% | 1015.3 hPa | 0 mm | - | - | - |
| 1778023854 | 22.22° C | 63% | 1015.2 hPa | 0 mm | - | - | - |
| 1778022944 | 22.78° C | 62% | 1015.1 hPa | 0 mm | - | - | - |
| 1778022039 | 22.78° C | 61% | 1015.2 hPa | 0 mm | - | - | - |
| 1778021118 | 23.33° C | 60% | 1015.2 hPa | 0 mm | - | - | - |
| 1778020224 | 23.89° C | 58% | 1015.2 hPa | 0 mm | - | - | - |
| 1778019377 | 24.44° C | 56% | 1015.3 hPa | 0 mm | - | - | - |
| 1778018458 | 24.44° C | 54% | 1015.2 hPa | 0 mm | - | - | - |
| 1778017577 | 25° C | 50% | 1015.1 hPa | 0 mm | - | - | - |
| 1778016641 | 25° C | 50% | 1015.2 hPa | 0 mm | - | - | - |
| 1778015740 | 24.44° C | 51% | 1015.1 hPa | 0 mm | - | - | - |
| 1778014821 | 25.56° C | 49% | 1015.1 hPa | 0 mm | - | - | - |
| 1778013921 | 25.56° C | 51% | 1015 hPa | 0 mm | - | - | - |
| 1778013002 | 25.56° C | 49% | 1015 hPa | 0 mm | - | - | - |
| 1778012105 | 26.11° C | 49% | 1015.2 hPa | 0 mm | - | - | - |
| 1778011255 | 25.56° C | 48% | 1015.4 hPa | 0 mm | - | - | - |
| 1778010341 | 26.11° C | 46% | 1015.7 hPa | 0 mm | - | - | - |
| 1778009421 | 25.56° C | 47% | 1015.8 hPa | 0 mm | - | - | - |
| 1778008520 | 25° C | 48% | 1016.2 hPa | 0 mm | - | - | - |
| 1778007601 | 25.56° C | 48% | 1016.3 hPa | 0 mm | - | - | - |
* Rain latest hour (hover to see other rain measurements)
** Current wind speed in m/s (hover to see current wind gust speed)